Lake Fork, Idaho
Current Conditions -  °F | °C
As of 2:10 PM on Thursday 23 Oct 2014 (Local Time) from KMYL Reporting Station
Light Rain Light Rain  
Wind Chill: 41°   Ceiling: 2300
Heat Index: 46°   Visibility: 10mi
Dew Point: 43°   Wind: 10mph
Humidity: 89%   Direction: 140°SE
Pressure: 30.03"   Gusts: NA
Location:  44.83°N, 116.09°W
Report Text: KMYL 232010Z AUTO 14009KT 10SM -RA SCT016 BKN023 OVC030 08/06 A3003 RMK AO2 P0001 T00780061
Loading
Personal Weather Stations






























Interactive Weather Map
Tropical Storm Tracking
New forecast layout! Learn more

10-Day Weather Forecast

Advertisements
Track Severe Weather on mobile